TimeEDT,TemperatureF,Dew PointF,Humidity,Sea Level PressureIn,VisibilityMPH,Wind Direction,Wind SpeedMPH,Gust SpeedMPH,PrecipitationIn,Events,Conditions,WindDirDegrees,DateUTC
12:14 AM,55.4,53.6,94,29.71,1.2,Calm,Calm,-,0.00,Rain,Light Rain,0,2013-06-14 04:14:00
12:22 AM,55.4,53.6,94,29.71,0.5,Calm,Calm,-,0.01,Fog-Rain,Light Rain,0,2013-06-14 04:22:00
12:49 AM,55.4,53.6,94,29.70,1.2,North,3.5,-,0.01,Rain,Light Rain,360,2013-06-14 04:49:00
12:51 AM,55.0,54.0,96,29.70,2.0,North,3.5,-,0.01,Rain,Light Rain,350,2013-06-14 04:51:00
12:56 AM,55.4,53.6,94,29.70,5.0,NNW,3.5,-,0.00,Rain,Light Rain,340,2013-06-14 04:56:00
1:51 AM,55.0,54.0,96,29.68,5.0,Calm,Calm,-,0.03,Rain,Light Rain,0,2013-06-14 05:51:00
2:51 AM,55.0,53.1,93,29.67,7.0,Calm,Calm,-,0.04,Rain,Light Rain,0,2013-06-14 06:51:00
3:30 AM,55.4,53.6,94,29.68,4.0,Calm,Calm,-,0.04,Rain,Light Rain,0,2013-06-14 07:30:00
3:42 AM,55.4,53.6,94,29.68,4.0,Calm,Calm,-,0.05,Rain,Light Rain,0,2013-06-14 07:42:00
3:51 AM,55.0,53.1,93,29.68,4.0,Calm,Calm,-,0.05,Rain,Light Rain,0,2013-06-14 07:51:00
3:58 AM,55.4,53.6,94,29.68,4.0,Calm,Calm,-,0.01,Rain,Light Rain,0,2013-06-14 07:58:00
4:12 AM,55.4,53.6,94,29.69,4.0,Calm,Calm,-,0.02,Rain,Light Rain,0,2013-06-14 08:12:00
4:25 AM,55.4,53.6,94,29.69,5.0,Calm,Calm,-,0.03,Rain,Light Rain,0,2013-06-14 08:25:00
4:34 AM,55.4,53.6,94,29.69,5.0,Calm,Calm,-,0.05,Rain,Rain,0,2013-06-14 08:34:00
4:43 AM,55.4,53.6,94,29.69,4.0,Calm,Calm,-,0.06,Rain,Rain,0,2013-06-14 08:43:00
4:51 AM,55.0,53.1,93,29.69,4.0,Calm,Calm,-,0.08,Rain,Rain,0,2013-06-14 08:51:00
4:59 AM,53.6,53.6,100,29.69,4.0,Calm,Calm,-,0.02,Rain,Rain,0,2013-06-14 08:59:00
5:38 AM,55.4,53.6,94,29.69,5.0,Calm,Calm,-,0.05,Rain,Light Rain,0,2013-06-14 09:38:00
5:51 AM,54.0,52.0,93,29.69,9.0,Calm,Calm,-,0.05,Rain,Light Rain,0,2013-06-14 09:51:00
6:13 AM,53.6,51.8,94,29.69,10.0,NNW,3.5,-,N/A,,Overcast,330,2013-06-14 10:13:00
6:30 AM,53.6,51.8,94,29.70,10.0,Calm,Calm,-,N/A,,Overcast,0,2013-06-14 10:30:00
6:51 AM,54.0,52.0,93,29.70,10.0,Calm,Calm,-,N/A,,Overcast,0,2013-06-14 10:51:00
7:22 AM,55.4,51.8,88,29.71,10.0,Calm,Calm,-,N/A,,Mostly Cloudy,0,2013-06-14 11:22:00
7:51 AM,55.0,53.1,93,29.70,10.0,Calm,Calm,-,N/A,,Mostly Cloudy,0,2013-06-14 11:51:00
8:03 AM,55.4,53.6,94,29.71,10.0,Calm,Calm,-,N/A,,Mostly Cloudy,0,2013-06-14 12:03:00
8:29 AM,55.4,53.6,94,29.72,10.0,Calm,Calm,-,N/A,,Mostly Cloudy,0,2013-06-14 12:29:00
8:51 AM,55.9,53.1,90,29.71,10.0,Calm,Calm,-,N/A,,Mostly Cloudy,0,2013-06-14 12:51:00
9:17 AM,55.4,53.6,94,29.72,10.0,Variable,3.5,-,N/A,,Mostly Cloudy,0,2013-06-14 13:17:00
9:41 AM,57.2,53.6,88,29.72,10.0,Variable,3.5,-,N/A,,Scattered Clouds,0,2013-06-14 13:41:00
9:51 AM,57.0,53.1,87,29.71,10.0,Calm,Calm,-,N/A,,Partly Cloudy,0,2013-06-14 13:51:00
10:39 AM,60.8,55.4,82,29.71,10.0,NW,4.6,-,N/A,,Mostly Cloudy,310,2013-06-14 14:39:00
10:51 AM,62.1,55.0,78,29.70,10.0,NW,6.9,-,N/A,,Mostly Cloudy,320,2013-06-14 14:51:00
11:08 AM,62.6,55.4,77,29.70,10.0,NNW,5.8,-,N/A,,Scattered Clouds,330,2013-06-14 15:08:00
11:51 AM,66.0,55.9,70,29.70,10.0,North,3.5,-,N/A,,Clear,360,2013-06-14 15:51:00
12:51 PM,69.1,54.0,58,29.70,10.0,Variable,5.8,-,N/A,,Clear,0,2013-06-14 16:51:00
1:51 PM,72.0,53.1,51,29.68,10.0,North,6.9,-,N/A,,Partly Cloudy,10,2013-06-14 17:51:00
2:51 PM,73.9,52.0,46,29.68,10.0,NW,5.8,-,N/A,,Partly Cloudy,320,2013-06-14 18:51:00
3:51 PM,71.1,50.0,47,29.68,9.0,North,8.1,-,0.00,Rain,Light Rain,360,2013-06-14 19:51:00
4:51 PM,73.9,50.0,43,29.67,10.0,Calm,Calm,-,0.00,,Clear,0,2013-06-14 20:51:00
5:51 PM,75.9,48.9,38,29.66,10.0,WNW,4.6,-,N/A,,Clear,300,2013-06-14 21:51:00
6:51 PM,73.0,48.0,41,29.68,10.0,NW,8.1,-,N/A,,Scattered Clouds,310,2013-06-14 22:51:00
7:51 PM,70.0,48.9,47,29.69,10.0,Calm,Calm,-,N/A,,Clear,0,2013-06-14 23:51:00
8:51 PM,68.0,48.9,50,29.70,10.0,Variable,4.6,-,N/A,,Mostly Cloudy,0,2013-06-15 00:51:00
9:51 PM,64.0,51.1,63,29.72,10.0,NW,6.9,-,N/A,,Clear,310,2013-06-15 01:51:00
10:51 PM,63.0,52.0,67,29.73,10.0,NW,9.2,-,N/A,,Clear,310,2013-06-15 02:51:00
11:51 PM,60.1,52.0,75,29.75,10.0,Calm,Calm,-,N/A,,Clear,0,2013-06-15 03:51:00